Terminal Aerodrome Forecast
Issued by NWS Jackson, MS

Home | Current Version | Previous Version | Text Only | Print | Product List | Glossary On
Versions: 1 2 3 4 5 6 7 8 9 10 11 12 13
980
FTUS44 KMEG 262333
TAFTUP
TAF
KTUP 262333Z 2700/2724 20006KT P6SM FEW040 BKN250
     FM271000 21007KT P6SM OVC015
     FM271400 24010KT P6SM VCTS OVC020CB
     FM271800 24010G16KT P6SM BKN030
     FM272000 25010G16KT P6SM BKN040=

USA.gov is the U.S. government's official web portal to all federal, state and local government web resources and services.